Time;durP1;ratioP1;P1;durP2;ratioP2;P2;SDS_P1;SDS_P2;PMS_P1;PMS_P2;Temp;Humidity;BMP_temperature;BMP_pressure;BME280_temperature;BME280_humidity;BME280_pressure;Samples;Min_cycle;Max_cycle;Signal;HPM_P1;HPM_P2
2023/07/21 00:00:14;;;;;;;2.80;0.90;;;15.20;99.90;;;;;;5049752;28;20665;-78
2023/07/21 00:02:46;;;;;;;2.25;0.75;;;15.30;99.90;;;;;;5048280;28;20561;-77
2023/07/21 00:05:17;;;;;;;4.03;0.80;;;15.40;99.90;;;;;;5048485;28;20351;-79
2023/07/21 00:07:51;;;;;;;2.55;0.85;;;15.40;99.90;;;;;;5061552;28;20237;-76
2023/07/21 00:10:22;;;;;;;0.68;0.60;;;15.50;99.90;;;;;;5050935;28;20766;-79
2023/07/21 00:12:53;;;;;;;2.03;0.80;;;15.50;99.90;;;;;;5050176;28;20568;-76
2023/07/21 00:15:24;;;;;;;1.70;0.60;;;15.60;99.90;;;;;;5076975;28;20218;-79
2023/07/21 00:17:55;;;;;;;1.00;0.63;;;15.70;99.90;;;;;;5050834;28;20205;-77
2023/07/21 00:20:27;;;;;;;1.75;0.60;;;15.70;99.90;;;;;;5047963;28;20228;-77
2023/07/21 00:23:00;;;;;;;1.48;0.70;;;15.80;99.90;;;;;;5068892;28;20224;-79
2023/07/21 00:25:32;;;;;;;2.10;0.75;;;15.80;99.90;;;;;;5054599;28;20191;-77
2023/07/21 00:28:03;;;;;;;1.80;0.70;;;15.90;99.90;;;;;;5065157;28;20212;-77
2023/07/21 00:30:37;;;;;;;2.10;0.70;;;15.90;99.90;;;;;;5058747;28;20261;-78
2023/07/21 00:33:08;;;;;;;3.45;1.00;;;15.90;99.90;;;;;;5054418;28;20629;-77
2023/07/21 00:35:40;;;;;;;3.03;0.80;;;16.00;99.90;;;;;;5071183;28;20188;-80
2023/07/21 00:38:13;;;;;;;1.58;0.70;;;16.00;99.90;;;;;;5095017;28;20196;-77
2023/07/21 00:40:44;;;;;;;2.20;0.90;;;16.00;99.90;;;;;;5078371;28;20645;-80
2023/07/21 00:43:17;;;;;;;1.75;0.50;;;16.10;99.90;;;;;;5074248;28;20228;-76
2023/07/21 00:45:49;;;;;;;4.10;0.77;;;16.20;99.90;;;;;;5061793;28;20509;-77
2023/07/21 00:48:21;;;;;;;3.88;0.85;;;16.30;99.90;;;;;;5060748;28;20248;-78
2023/07/21 00:50:55;;;;;;;2.78;0.77;;;16.40;99.90;;;;;;5063162;28;20672;-78
2023/07/21 00:53:28;;;;;;;2.40;0.50;;;16.50;99.90;;;;;;5057702;28;20196;-77
2023/07/21 00:56:00;;;;;;;2.03;0.60;;;16.80;99.90;;;;;;5063391;28;20276;-78
2023/07/21 00:58:33;;;;;;;3.58;0.50;;;16.90;99.90;;;;;;5059096;28;20201;-76
2023/07/21 01:01:04;;;;;;;1.73;0.60;;;17.00;99.90;;;;;;5057428;28;20211;-76
2023/07/21 01:03:35;;;;;;;2.17;0.70;;;17.10;99.90;;;;;;5059203;28;20200;-77
2023/07/21 01:06:10;;;;;;;7.13;0.77;;;17.10;99.90;;;;;;5067689;28;20193;-76
2023/07/21 01:08:43;;;;;;;1.38;0.50;;;17.20;99.90;;;;;;5052814;28;20242;-74
2023/07/21 01:11:15;;;;;;;4.18;0.90;;;17.40;99.90;;;;;;5052864;28;20197;-76
2023/07/21 01:13:46;;;;;;;5.07;1.00;;;17.60;99.90;;;;;;5053828;28;20198;-76
2023/07/21 01:16:18;;;;;;;1.63;0.50;;;17.60;99.90;;;;;;5061589;28;20564;-76
2023/07/21 01:18:54;;;;;;;0.95;0.70;;;17.40;99.90;;;;;;5061452;28;20200;-76
2023/07/21 01:21:37;;;;;;;3.03;0.65;;;17.20;99.90;;;;;;5063544;28;20189;-80
2023/07/21 01:24:18;;;;;;;1.98;0.70;;;17.20;99.90;;;;;;5053640;28;20185;-74
2023/07/21 01:26:52;;;;;;;1.50;0.70;;;17.40;99.90;;;;;;5053846;28;20300;-78
2023/07/21 01:29:25;;;;;;;1.67;0.60;;;17.50;99.90;;;;;;5058213;28;20192;-77
2023/07/21 01:31:59;;;;;;;2.35;0.70;;;17.40;99.90;;;;;;5058357;28;20193;-78
2023/07/21 01:34:31;;;;;;;1.48;0.43;;;17.50;99.90;;;;;;5064376;28;20203;-77
2023/07/21 01:37:04;;;;;;;2.13;1.05;;;17.70;99.90;;;;;;5070007;28;20204;-77
2023/07/21 01:39:37;;;;;;;1.05;0.75;;;17.90;99.90;;;;;;5073307;28;20224;-77
2023/07/21 01:42:11;;;;;;;2.08;0.50;;;18.00;99.90;;;;;;5060871;28;20221;-77
2023/07/21 01:44:43;;;;;;;1.92;0.40;;;18.00;99.90;;;;;;5052812;28;20213;-76
2023/07/21 01:47:14;;;;;;;2.53;0.60;;;18.00;99.90;;;;;;5052763;28;20565;-76
2023/07/21 01:49:45;;;;;;;1.10;0.40;;;17.90;99.90;;;;;;5063691;28;20193;-78
2023/07/21 01:52:17;;;;;;;1.98;0.50;;;17.80;99.90;;;;;;5073180;28;20189;-76
2023/07/21 01:54:51;;;;;;;1.08;0.50;;;17.70;99.90;;;;;;5063588;28;20204;-74
2023/07/21 01:57:33;;;;;;;1.05;0.50;;;17.80;99.90;;;;;;5056773;28;20596;-78
2023/07/21 02:00:06;;;;;;;1.25;0.50;;;17.90;99.90;;;;;;5058533;28;20688;-80
2023/07/21 02:02:38;;;;;;;0.80;0.30;;;18.10;99.90;;;;;;5052776;28;20240;-78
2023/07/21 02:05:19;;;;;;;1.38;0.63;;;18.30;99.90;;;;;;5053208;28;20193;-77
2023/07/21 02:07:50;;;;;;;1.55;0.60;;;18.50;99.90;;;;;;5063287;28;20240;-79
2023/07/21 02:10:22;;;;;;;1.50;0.50;;;18.60;99.90;;;;;;5055155;28;20244;-77
2023/07/21 02:12:55;;;;;;;2.33;0.60;;;18.70;99.90;;;;;;5054325;28;20198;-76
2023/07/21 02:15:26;;;;;;;0.47;0.38;;;18.80;99.90;;;;;;5052863;28;20637;-77
2023/07/21 02:17:57;;;;;;;1.70;0.40;;;18.80;99.90;;;;;;5053057;28;20199;-78
2023/07/21 02:20:29;;;;;;;1.42;0.50;;;18.80;99.90;;;;;;5052875;28;20186;-78
2023/07/21 02:23:00;;;;;;;0.50;0.30;;;18.80;99.90;;;;;;5053586;28;20205;-76
2023/07/21 02:25:31;;;;;;;0.73;0.40;;;18.80;99.90;;;;;;5052387;28;20200;-76
2023/07/21 02:28:04;;;;;;;1.17;0.40;;;18.80;99.90;;;;;;5053357;28;20584;-78
2023/07/21 02:30:35;;;;;;;0.90;0.40;;;18.70;99.90;;;;;;5052385;28;20237;-78
2023/07/21 02:33:06;;;;;;;0.85;0.40;;;18.80;99.90;;;;;;5071732;28;20565;-76
2023/07/21 02:35:38;;;;;;;1.13;0.30;;;18.90;99.90;;;;;;5062988;28;20205;-75
2023/07/21 02:38:09;;;;;;;1.40;0.43;;;18.90;99.90;;;;;;5070370;28;20645;-76
2023/07/21 02:40:40;;;;;;;0.52;0.40;;;19.00;99.90;;;;;;5059893;28;20197;-76
2023/07/21 02:43:13;;;;;;;0.35;0.30;;;19.00;99.90;;;;;;5085676;28;20231;-78
2023/07/21 02:45:50;;;;;;;0.32;0.30;;;19.00;99.90;;;;;;5069572;28;20588;-77
2023/07/21 02:48:22;;;;;;;0.55;0.30;;;18.90;99.90;;;;;;5059540;28;20254;-77
2023/07/21 02:50:55;;;;;;;1.25;0.20;;;19.00;99.90;;;;;;5060523;28;20205;-79
2023/07/21 02:53:26;;;;;;;0.52;0.38;;;19.00;99.90;;;;;;5061897;28;20198;-77
2023/07/21 02:55:58;;;;;;;0.65;0.30;;;19.10;99.90;;;;;;5059667;28;20239;-76
2023/07/21 02:58:32;;;;;;;2.88;0.30;;;19.20;99.90;;;;;;5070005;28;20200;-79
2023/07/21 03:01:04;;;;;;;0.98;0.40;;;19.10;99.90;;;;;;5069069;28;20225;-76
2023/07/21 03:03:35;;;;;;;2.33;0.20;;;19.30;99.90;;;;;;5066262;28;20200;-77
2023/07/21 03:06:08;;;;;;;1.33;0.30;;;19.40;99.90;;;;;;5069681;28;20879;-76
2023/07/21 03:08:39;;;;;;;2.53;0.45;;;19.20;99.90;;;;;;5057828;28;20263;-77
2023/07/21 03:11:11;;;;;;;1.08;0.40;;;18.90;99.90;;;;;;5061783;28;20205;-75
2023/07/21 03:13:44;;;;;;;0.95;0.30;;;18.90;99.90;;;;;;5071224;28;20200;-74
2023/07/21 03:16:15;;;;;;;1.13;0.50;;;19.10;99.90;;;;;;5063622;28;20202;-78
2023/07/21 03:18:46;;;;;;;1.25;0.30;;;19.10;99.90;;;;;;5074058;28;20554;-76
2023/07/21 03:21:18;;;;;;;0.60;0.30;;;19.10;99.90;;;;;;5061143;28;20201;-77
2023/07/21 03:23:49;;;;;;;2.03;0.57;;;19.20;99.90;;;;;;5072569;28;20189;-75
2023/07/21 03:26:20;;;;;;;1.58;0.52;;;19.20;99.90;;;;;;5060064;28;20201;-76
2023/07/21 03:28:53;;;;;;;1.42;0.40;;;19.20;99.90;;;;;;5060671;28;20220;-76
2023/07/21 03:31:24;;;;;;;0.55;0.30;;;19.20;99.90;;;;;;5065822;28;20193;-78
2023/07/21 03:33:55;;;;;;;2.83;0.32;;;19.30;99.90;;;;;;5066660;28;20200;-75
2023/07/21 03:36:27;;;;;;;2.40;1.33;;;19.30;99.90;;;;;;5061711;28;20656;-77
2023/07/21 03:38:58;;;;;;;1.23;0.40;;;19.20;99.90;;;;;;5075241;28;20307;-79
2023/07/21 03:41:29;;;;;;;0.52;0.25;;;19.20;99.90;;;;;;5067417;28;20228;-77
2023/07/21 03:44:02;;;;;;;2.25;0.65;;;19.10;99.90;;;;;;5072778;28;20239;-78
2023/07/21 03:46:33;;;;;;;1.20;0.30;;;19.20;99.90;;;;;;5064088;28;20227;-78
2023/07/21 03:49:04;;;;;;;0.80;0.30;;;19.20;99.90;;;;;;5073225;28;20656;-77
2023/07/21 03:51:35;;;;;;;1.70;0.30;;;19.20;99.90;;;;;;5073384;28;20276;-77
2023/07/21 03:54:06;;;;;;;3.80;0.30;;;19.20;99.90;;;;;;5065060;28;20223;-78
2023/07/21 03:56:39;;;;;;;0.35;0.20;;;19.20;99.90;;;;;;5068191;28;20284;-80
2023/07/21 03:59:12;;;;;;;0.82;0.50;;;19.20;99.90;;;;;;5063056;28;20201;-76
2023/07/21 04:01:43;;;;;;;1.38;0.47;;;19.20;99.90;;;;;;5071771;28;20197;-77
2023/07/21 04:04:15;;;;;;;2.25;0.50;;;19.20;99.90;;;;;;5074943;28;20196;-78
2023/07/21 04:06:46;;;;;;;1.67;0.60;;;19.10;99.90;;;;;;5075102;28;20207;-78
2023/07/21 04:09:18;;;;;;;3.03;0.85;;;19.10;99.90;;;;;;5062147;28;20237;-76
2023/07/21 04:11:49;;;;;;;3.72;0.63;;;19.20;99.90;;;;;;5073897;28;20252;-77
2023/07/21 04:14:22;;;;;;;0.52;0.28;;;19.30;99.90;;;;;;5060357;28;20205;-77
2023/07/21 04:16:53;;;;;;;0.20;0.20;;;19.30;99.90;;;;;;5052022;28;20201;-78
2023/07/21 04:19:25;;;;;;;0.82;0.30;;;19.20;99.90;;;;;;5076891;28;20908;-79
2023/07/21 04:21:57;;;;;;;1.75;0.20;;;19.20;99.90;;;;;;5057957;28;20654;-77
2023/07/21 04:24:28;;;;;;;0.32;0.22;;;19.20;99.90;;;;;;5058834;28;20644;-78
2023/07/21 04:26:59;;;;;;;1.20;0.30;;;19.20;99.90;;;;;;5070045;28;20194;-79
2023/07/21 04:29:32;;;;;;;1.25;0.32;;;19.20;99.90;;;;;;5061649;28;20753;-77
2023/07/21 04:32:03;;;;;;;0.20;0.20;;;19.40;99.90;;;;;;5054183;28;20728;-79
2023/07/21 04:34:34;;;;;;;0.90;0.30;;;19.50;99.90;;;;;;5065777;28;20189;-79
2023/07/21 04:37:09;;;;;;;2.30;0.55;;;19.60;99.90;;;;;;5069315;28;20660;-82
2023/07/21 04:39:40;;;;;;;2.05;0.50;;;19.70;99.90;;;;;;5064597;28;20196;-79
2023/07/21 04:42:12;;;;;;;2.25;0.50;;;19.60;99.90;;;;;;5073726;28;20252;-81
2023/07/21 04:44:48;;;;;;;4.65;0.70;;;19.40;99.90;;;;;;5063260;28;20228;-78
2023/07/21 04:47:19;;;;;;;1.42;0.50;;;19.20;99.90;;;;;;5066743;28;20272;-82
2023/07/21 04:49:53;;;;;;;1.92;0.45;;;19.00;99.90;;;;;;5060390;28;20189;-80
2023/07/21 04:52:24;;;;;;;1.38;0.50;;;18.70;99.90;;;;;;5057879;28;20649;-81
2023/07/21 04:54:55;;;;;;;2.70;0.40;;;18.40;99.90;;;;;;5067257;28;20568;-81
2023/07/21 04:57:27;;;;;;;2.90;0.50;;;18.20;99.90;;;;;;5060451;28;20194;-79
2023/07/21 05:00:01;;;;;;;2.25;0.50;;;18.00;99.90;;;;;;5073542;28;20559;-81
2023/07/21 05:02:32;;;;;;;1.98;0.55;;;17.80;99.90;;;;;;5067666;28;20193;-81
2023/07/21 05:05:03;;;;;;;2.90;0.60;;;17.60;99.90;;;;;;5069838;28;20197;-80
2023/07/21 05:07:34;;;;;;;1.42;0.60;;;17.50;99.90;;;;;;5064203;28;20600;-79
2023/07/21 05:10:05;;;;;;;1.42;0.50;;;17.40;99.90;;;;;;5056119;28;20236;-81
2023/07/21 05:12:37;;;;;;;1.10;0.40;;;17.30;99.90;;;;;;5055008;28;20280;-82
2023/07/21 05:15:10;;;;;;;3.92;0.80;;;17.20;99.90;;;;;;5065832;28;20296;-81
2023/07/21 05:17:41;;;;;;;2.53;0.70;;;17.10;99.90;;;;;;5073040;28;20601;-80
2023/07/21 05:20:13;;;;;;;2.88;0.70;;;17.00;99.90;;;;;;5072889;28;20207;-78
2023/07/21 05:22:44;;;;;;;1.65;0.70;;;17.00;99.90;;;;;;5073421;28;20672;-78
2023/07/21 05:25:17;;;;;;;1.77;0.65;;;16.90;99.90;;;;;;5064718;28;20199;-77
2023/07/21 05:27:50;;;;;;;1.42;1.00;;;16.80;99.90;;;;;;5073158;28;20220;-80
2023/07/21 05:30:24;;;;;;;2.35;0.40;;;16.80;99.90;;;;;;5073177;28;20204;-79
2023/07/21 05:32:56;;;;;;;2.78;0.50;;;16.70;99.90;;;;;;5064300;28;20209;-78
2023/07/21 05:35:28;;;;;;;0.90;0.50;;;16.60;99.90;;;;;;5064800;28;20289;-76
2023/07/21 05:38:00;;;;;;;0.88;0.55;;;16.60;99.90;;;;;;5068710;28;20215;-80
2023/07/21 05:40:31;;;;;;;3.30;0.80;;;16.70;99.90;;;;;;5057463;28;20208;-79
2023/07/21 05:43:02;;;;;;;4.40;0.80;;;16.60;99.90;;;;;;5064707;28;20263;-77
2023/07/21 05:45:39;;;;;;;5.35;0.73;;;16.60;99.90;;;;;;5062795;28;20653;-77
2023/07/21 05:48:11;;;;;;;2.53;0.70;;;16.60;99.90;;;;;;5062877;28;20216;-80
2023/07/21 05:50:42;;;;;;;2.72;0.55;;;16.60;99.90;;;;;;5069890;28;20188;-80
2023/07/21 05:53:14;;;;;;;0.85;0.50;;;16.60;99.90;;;;;;5054078;28;20197;-81
2023/07/21 05:55:46;;;;;;;2.47;0.85;;;16.60;99.90;;;;;;5060324;28;20205;-77
2023/07/21 05:58:18;;;;;;;2.92;0.63;;;16.50;99.90;;;;;;5053543;28;20205;-79
2023/07/21 06:00:52;;;;;;;4.78;0.80;;;16.50;99.90;;;;;;5056622;28;20263;-79
2023/07/21 06:03:24;;;;;;;1.83;0.70;;;16.50;99.90;;;;;;5058936;28;20209;-77
2023/07/21 06:05:56;;;;;;;1.95;0.60;;;16.50;99.90;;;;;;5061496;28;20285;-78
2023/07/21 06:08:27;;;;;;;2.67;0.60;;;16.40;99.90;;;;;;5063680;28;20236;-79
2023/07/21 06:11:00;;;;;;;2.10;0.68;;;16.40;99.90;;;;;;5063179;28;20284;-80
2023/07/21 06:13:31;;;;;;;4.65;0.73;;;16.30;99.90;;;;;;5072705;28;20193;-77
2023/07/21 06:16:04;;;;;;;1.67;0.63;;;16.20;99.90;;;;;;5073033;28;20205;-80
2023/07/21 06:18:35;;;;;;;3.72;0.88;;;16.10;99.90;;;;;;5061363;28;20729;-77
2023/07/21 06:21:07;;;;;;;3.33;0.60;;;16.10;99.90;;;;;;5068687;28;20196;-80
2023/07/21 06:23:38;;;;;;;1.67;0.57;;;16.10;99.90;;;;;;5057923;28;20280;-80
2023/07/21 06:26:10;;;;;;;2.05;0.75;;;16.00;99.90;;;;;;5069419;28;20197;-79
2023/07/21 06:28:41;;;;;;;2.50;0.60;;;16.00;99.90;;;;;;5066486;28;20252;-77
2023/07/21 06:31:15;;;;;;;1.92;0.75;;;16.00;99.90;;;;;;5072903;28;20196;-80
2023/07/21 06:33:46;;;;;;;3.13;0.68;;;15.90;99.90;;;;;;5067158;28;20196;-80
2023/07/21 06:36:17;;;;;;;2.20;0.60;;;15.90;99.90;;;;;;5064204;28;20195;-80
2023/07/21 06:38:48;;;;;;;1.58;0.50;;;15.90;99.90;;;;;;5062294;28;20566;-78
2023/07/21 06:41:20;;;;;;;3.30;0.98;;;15.90;99.90;;;;;;5075974;28;20228;-79
2023/07/21 06:43:51;;;;;;;1.65;0.68;;;16.00;99.90;;;;;;5076441;28;20553;-79
2023/07/21 06:46:24;;;;;;;1.60;0.70;;;16.00;99.90;;;;;;5068626;28;20285;-79
2023/07/21 06:48:56;;;;;;;4.53;0.70;;;16.00;99.90;;;;;;5067778;28;20223;-77
2023/07/21 06:51:27;;;;;;;0.95;0.73;;;16.00;99.90;;;;;;5065055;28;20193;-81
2023/07/21 06:53:58;;;;;;;1.55;0.60;;;15.90;99.90;;;;;;5073878;28;20586;-79
2023/07/21 06:56:29;;;;;;;2.97;0.60;;;15.90;99.90;;;;;;5056066;28;20204;-79
2023/07/21 06:59:01;;;;;;;1.00;0.50;;;15.90;99.90;;;;;;5072392;28;20200;-78
2023/07/21 07:01:34;;;;;;;2.00;0.70;;;15.90;99.90;;;;;;5063725;28;20194;-79
2023/07/21 07:04:05;;;;;;;0.93;0.50;;;15.90;99.90;;;;;;5060271;28;20243;-80
2023/07/21 07:06:36;;;;;;;1.98;0.50;;;15.80;99.90;;;;;;5055403;28;20288;-77
2023/07/21 07:09:08;;;;;;;1.73;0.70;;;15.80;99.90;;;;;;5060500;28;20232;-77
2023/07/21 07:11:39;;;;;;;2.35;0.75;;;15.70;99.90;;;;;;5068401;28;20190;-80
2023/07/21 07:14:10;;;;;;;0.95;0.45;;;15.70;99.90;;;;;;5069550;28;20281;-80
2023/07/21 07:16:44;;;;;;;2.15;0.50;;;15.70;99.90;;;;;;5060373;28;20204;-79
2023/07/21 07:19:15;;;;;;;1.20;0.60;;;15.60;99.90;;;;;;5056866;28;20198;-78
2023/07/21 07:21:47;;;;;;;1.80;0.57;;;15.50;99.90;;;;;;5075039;28;20189;-77
2023/07/21 07:24:19;;;;;;;0.80;0.52;;;15.50;99.90;;;;;;5070197;28;20196;-77
2023/07/21 07:26:50;;;;;;;2.28;0.57;;;15.40;99.90;;;;;;5063580;28;20189;-77
2023/07/21 07:29:22;;;;;;;3.47;0.80;;;15.40;99.90;;;;;;5072883;28;20212;-79
2023/07/21 07:31:55;;;;;;;1.27;0.75;;;15.30;99.90;;;;;;5065109;28;20197;-80
2023/07/21 07:34:26;;;;;;;1.00;0.90;;;15.30;99.90;;;;;;5072584;28;20673;-77
2023/07/21 07:36:57;;;;;;;1.13;0.80;;;15.20;99.90;;;;;;5066504;28;20197;-78
2023/07/21 07:39:30;;;;;;;1.13;0.60;;;15.20;99.90;;;;;;5072398;28;20537;-79
2023/07/21 07:42:00;;;;;;;2.28;0.93;;;15.20;99.90;;;;;;5068372;28;20307;-79
2023/07/21 07:44:31;;;;;;;3.42;1.15;;;15.10;99.90;;;;;;5062428;28;20284;-79
2023/07/21 07:47:04;;;;;;;1.60;0.80;;;15.10;99.90;;;;;;5070107;28;20675;-80
2023/07/21 07:49:36;;;;;;;2.08;0.70;;;15.00;99.90;;;;;;5074785;28;20220;-79
2023/07/21 07:52:09;;;;;;;1.75;0.73;;;15.00;99.90;;;;;;5069981;28;20229;-76
2023/07/21 07:54:40;;;;;;;1.45;0.70;;;15.00;99.90;;;;;;5064888;28;20197;-79
2023/07/21 07:57:11;;;;;;;1.05;0.70;;;14.90;99.90;;;;;;5068925;28;20280;-78
2023/07/21 07:59:42;;;;;;;1.70;0.80;;;14.90;99.90;;;;;;5063427;28;20204;-79
2023/07/21 08:02:15;;;;;;;1.90;0.93;;;14.80;99.90;;;;;;5070704;28;20223;-80
2023/07/21 08:04:45;;;;;;;1.10;0.63;;;14.80;99.90;;;;;;5054089;28;20609;-80
2023/07/21 08:07:16;;;;;;;2.15;0.82;;;14.70;99.90;;;;;;5055698;28;20649;-79
2023/07/21 08:09:47;;;;;;;3.47;0.82;;;14.70;99.90;;;;;;5062144;28;20269;-80
2023/07/21 08:12:18;;;;;;;1.90;0.80;;;14.70;99.90;;;;;;5068299;28;20276;-80
2023/07/21 08:14:49;;;;;;;2.25;0.80;;;14.70;99.90;;;;;;5068290;28;20656;-80
2023/07/21 08:17:22;;;;;;;3.42;0.90;;;14.60;99.90;;;;;;5074856;28;20284;-80
2023/07/21 08:19:52;;;;;;;2.70;0.95;;;14.60;99.90;;;;;;5063549;28;20200;-79
2023/07/21 08:22:23;;;;;;;1.52;0.90;;;14.60;99.90;;;;;;5059482;28;20206;-80
2023/07/21 08:24:54;;;;;;;1.75;0.90;;;14.60;99.90;;;;;;5059394;28;20215;-80
2023/07/21 08:27:26;;;;;;;2.65;1.00;;;14.60;99.90;;;;;;5064430;28;20241;-80
2023/07/21 08:29:57;;;;;;;1.98;0.90;;;14.50;99.90;;;;;;5071574;28;20208;-80
2023/07/21 08:32:30;;;;;;;1.42;0.90;;;14.50;99.90;;;;;;5054032;28;20665;-79
2023/07/21 08:35:01;;;;;;;1.88;0.88;;;14.50;99.90;;;;;;5058267;28;20599;-80
2023/07/21 08:37:32;;;;;;;3.58;1.15;;;14.50;99.90;;;;;;5067125;28;20198;-80
2023/07/21 08:40:03;;;;;;;3.90;1.00;;;14.50;99.90;;;;;;5072227;28;20668;-80
2023/07/21 08:42:35;;;;;;;1.70;0.80;;;14.40;99.90;;;;;;5066063;28;20274;-80
2023/07/21 08:45:07;;;;;;;2.22;0.90;;;14.40;99.90;;;;;;5064590;28;20633;-80
2023/07/21 08:47:40;;;;;;;2.28;0.90;;;14.40;99.90;;;;;;5069960;28;20678;-79
2023/07/21 08:50:14;;;;;;;4.82;0.93;;;14.40;99.90;;;;;;5069211;28;20273;-77
2023/07/21 08:52:44;;;;;;;1.77;0.90;;;14.30;99.90;;;;;;5056559;28;20197;-78
2023/07/21 08:55:15;;;;;;;2.50;1.10;;;14.30;99.90;;;;;;5057676;28;20200;-80
2023/07/21 08:57:46;;;;;;;3.33;1.30;;;14.30;99.90;;;;;;5061898;28;20198;-76
2023/07/21 09:00:19;;;;;;;2.20;1.30;;;14.30;99.90;;;;;;5070902;28;20655;-81
2023/07/21 09:02:51;;;;;;;3.88;1.40;;;14.30;99.90;;;;;;5057294;28;20297;-78
2023/07/21 09:05:22;;;;;;;3.45;1.40;;;14.20;99.90;;;;;;5068685;28;20254;-76
2023/07/21 09:07:53;;;;;;;2.35;1.33;;;14.20;99.90;;;;;;5070891;28;20205;-79
2023/07/21 09:10:34;;;;;;;2.67;1.20;;;14.20;99.90;;;;;;5072425;28;20684;-78
2023/07/21 09:13:05;;;;;;;4.97;1.45;;;14.20;99.90;;;;;;5067205;28;20199;-77
2023/07/21 09:15:36;;;;;;;4.68;1.60;;;14.10;99.90;;;;;;5060387;28;20197;-79
2023/07/21 09:18:09;;;;;;;3.83;1.73;;;14.10;99.90;;;;;;5071652;28;20197;-77
2023/07/21 09:20:40;;;;;;;3.83;2.40;;;14.00;99.90;;;;;;5066275;28;20207;-77
2023/07/21 09:23:11;;;;;;;6.60;2.67;;;14.10;99.90;;;;;;5073305;28;20225;-80
2023/07/21 09:25:53;;;;;;;4.55;2.47;;;14.00;99.90;;;;;;5073497;28;20196;-78
2023/07/21 09:28:39;;;;;;;4.57;2.50;;;14.00;99.90;;;;;;5062388;28;20196;-80
2023/07/21 09:31:10;;;;;;;3.08;1.95;;;13.90;99.90;;;;;;5073107;28;20282;-77
2023/07/21 09:33:43;;;;;;;4.10;1.80;;;13.90;99.90;;;;;;5073250;28;20197;-78
2023/07/21 09:36:15;;;;;;;4.63;1.90;;;13.90;99.90;;;;;;5063777;28;20197;-79
2023/07/21 09:38:47;;;;;;;4.75;2.10;;;13.90;99.90;;;;;;5071465;28;20679;-77
2023/07/21 09:41:20;;;;;;;3.75;1.77;;;13.90;99.90;;;;;;5056812;28;20220;-77
2023/07/21 09:43:51;;;;;;;3.33;1.90;;;13.90;99.90;;;;;;5050923;28;20205;-78
2023/07/21 09:46:22;;;;;;;5.50;2.30;;;13.80;99.90;;;;;;5051281;28;20244;-77
2023/07/21 09:48:55;;;;;;;6.85;2.67;;;13.80;99.90;;;;;;5051743;28;20675;-80
2023/07/21 09:51:29;;;;;;;4.93;2.22;;;13.70;99.90;;;;;;5053599;28;20197;-77
2023/07/21 09:54:03;;;;;;;5.88;2.72;;;13.70;99.90;;;;;;5058314;28;20193;-77
2023/07/21 09:56:38;;;;;;;6.07;3.22;;;13.70;99.90;;;;;;5063813;28;20260;-80
2023/07/21 09:59:12;;;;;;;5.88;3.05;;;13.60;99.90;;;;;;5067431;28;20192;-77
2023/07/21 10:01:44;;;;;;;5.68;2.97;;;13.60;99.90;;;;;;5064745;28;20196;-81
2023/07/21 10:04:18;;;;;;;6.93;3.63;;;13.50;99.90;;;;;;5072786;28;20283;-81
2023/07/21 10:06:50;;;;;;;5.88;3.60;;;13.50;99.90;;;;;;5066663;28;20205;-80
2023/07/21 10:09:21;;;;;;;8.40;3.78;;;13.50;99.90;;;;;;5062979;28;20228;-79
2023/07/21 10:11:51;;;;;;;7.43;3.40;;;13.40;99.90;;;;;;5071808;28;20200;-80
2023/07/21 10:14:35;;;;;;;5.00;3.40;;;13.40;99.90;;;;;;5058207;28;20678;-79
2023/07/21 10:17:06;;;;;;;7.15;3.85;;;13.40;99.90;;;;;;5055837;28;20197;-79
2023/07/21 10:19:45;;;;;;;10.50;3.78;;;13.40;99.90;;;;;;5058424;28;20372;-77
2023/07/21 10:22:25;;;;;;;8.27;3.45;;;13.30;99.90;;;;;;5060557;28;20200;-77
2023/07/21 10:24:56;;;;;;;5.18;2.92;;;13.30;99.90;;;;;;5062015;28;20197;-79
2023/07/21 10:27:29;;;;;;;6.55;2.80;;;13.30;99.90;;;;;;5061142;28;20204;-75
2023/07/21 10:30:21;;;;;;;5.32;3.15;;;13.30;99.90;;;;;;5054809;28;20225;-78
2023/07/21 10:32:55;;;;;;;8.68;3.30;;;13.20;99.90;;;;;;5061347;28;20207;-80
2023/07/21 10:35:39;;;;;;;6.53;3.05;;;13.30;99.90;;;;;;5063226;28;20194;-80
2023/07/21 10:38:27;;;;;;;7.50;3.05;;;13.30;99.90;;;;;;5052949;28;20199;-82
2023/07/21 10:40:58;;;;;;;5.68;2.88;;;13.20;99.90;;;;;;5068914;28;20231;-78
2023/07/21 10:43:29;;;;;;;7.35;3.30;;;13.20;99.90;;;;;;5058275;28;20594;-79
2023/07/21 10:46:00;;;;;;;5.45;3.03;;;13.20;99.90;;;;;;5068845;28;20653;-82
2023/07/21 10:48:31;;;;;;;5.70;3.20;;;13.20;99.90;;;;;;5072569;28;20197;-80
2023/07/21 10:51:04;;;;;;;4.40;2.92;;;13.20;99.90;;;;;;5072169;28;20722;-81
2023/07/21 10:53:35;;;;;;;6.53;3.15;;;13.20;99.90;;;;;;5059013;28;20201;-79
2023/07/21 10:56:07;;;;;;;5.43;3.25;;;13.20;99.90;;;;;;5072364;28;20204;-82
2023/07/21 10:58:39;;;;;;;5.88;3.38;;;13.10;99.90;;;;;;5072212;28;20330;-82
2023/07/21 11:01:09;;;;;;;4.90;2.83;;;13.10;99.90;;;;;;5072267;28;20195;-80
2023/07/21 11:03:45;;;;;;;7.15;3.20;;;13.10;99.90;;;;;;5063467;28;20201;-82
2023/07/21 11:06:18;;;;;;;7.72;3.30;;;13.10;99.90;;;;;;5069966;28;20197;-78
2023/07/21 11:08:49;;;;;;;8.57;2.92;;;13.00;99.90;;;;;;5061454;28;20229;-79
2023/07/21 11:11:19;;;;;;;5.90;2.95;;;13.00;99.90;;;;;;5071323;28;20303;-81
2023/07/21 11:13:50;;;;;;;5.93;2.90;;;13.00;99.90;;;;;;5070880;28;20558;-78
2023/07/21 11:16:21;;;;;;;4.72;2.55;;;13.00;99.90;;;;;;5076037;28;20239;-77
2023/07/21 11:18:52;;;;;;;6.15;2.60;;;13.00;99.90;;;;;;5076422;28;20201;-76
2023/07/21 11:21:26;;;;;;;4.50;2.70;;;13.00;99.90;;;;;;5070868;28;20560;-81
2023/07/21 11:24:03;;;;;;;6.35;2.85;;;13.00;99.90;;;;;;5075707;28;20685;-79
2023/07/21 11:26:34;;;;;;;4.20;2.40;;;13.00;99.90;;;;;;5072724;28;20193;-80
2023/07/21 11:29:08;;;;;;;5.72;2.60;;;13.00;99.90;;;;;;5065550;28;20202;-78
2023/07/21 11:31:40;;;;;;;5.90;2.60;;;13.00;99.90;;;;;;5064843;28;20239;-78
2023/07/21 11:34:22;;;;;;;4.50;2.25;;;13.10;99.90;;;;;;5059827;28;20204;-77
2023/07/21 11:36:58;;;;;;;5.38;2.22;;;13.10;99.90;;;;;;5062815;28;20201;-78
2023/07/21 11:39:30;;;;;;;3.90;2.17;;;13.10;99.90;;;;;;5073145;28;20272;-79
2023/07/21 11:42:01;;;;;;;5.95;2.47;;;13.10;99.90;;;;;;5075006;28;20691;-81
2023/07/21 11:44:35;;;;;;;5.05;2.50;;;13.10;99.90;;;;;;5075196;28;20283;-81
2023/07/21 11:47:10;;;;;;;5.00;2.47;;;13.10;99.90;;;;;;5075011;28;20197;-80
2023/07/21 11:49:41;;;;;;;6.03;2.40;;;13.10;99.90;;;;;;5062506;28;20671;-81
2023/07/21 11:52:24;;;;;;;6.85;2.38;;;13.10;99.90;;;;;;5070168;28;20248;-81
2023/07/21 11:54:56;;;;;;;4.82;2.00;;;13.10;99.90;;;;;;5066782;28;20618;-78
2023/07/21 11:57:27;;;;;;;3.95;2.05;;;13.10;99.90;;;;;;5071843;28;20228;-78
2023/07/21 11:59:58;;;;;;;5.45;2.22;;;13.10;99.90;;;;;;5075173;28;20197;-81
2023/07/21 12:02:29;;;;;;;5.43;2.20;;;13.10;99.90;;;;;;5065135;28;20193;-79
2023/07/21 12:05:00;;;;;;;4.35;2.03;;;13.00;99.90;;;;;;5068625;28;20222;-81
2023/07/21 12:07:33;;;;;;;4.88;2.25;;;13.00;99.90;;;;;;5074372;28;20562;-79
2023/07/21 12:10:03;;;;;;;4.70;2.00;;;12.90;99.90;;;;;;5069944;28;20239;-78
2023/07/21 12:12:36;;;;;;;2.65;1.80;;;12.90;99.90;;;;;;5072769;28;20585;-80
2023/07/21 12:15:10;;;;;;;2.95;1.50;;;12.90;99.90;;;;;;5070428;28;20228;-78
2023/07/21 12:17:42;;;;;;;3.45;1.40;;;12.90;99.90;;;;;;5067441;28;20191;-78
2023/07/21 12:20:13;;;;;;;1.83;1.00;;;12.90;99.90;;;;;;5074318;28;20228;-80
2023/07/21 12:22:46;;;;;;;3.60;1.30;;;12.90;99.90;;;;;;5066604;28;20205;-81
2023/07/21 12:25:17;;;;;;;1.88;1.23;;;12.80;99.90;;;;;;5074264;28;20279;-80
2023/07/21 12:27:47;;;;;;;3.10;1.20;;;12.80;99.90;;;;;;5058416;28;20202;-79
2023/07/21 12:30:18;;;;;;;2.72;1.20;;;12.80;99.90;;;;;;5059358;28;20226;-79
2023/07/21 12:32:49;;;;;;;2.47;1.42;;;12.80;99.90;;;;;;5059225;28;20198;-79
2023/07/21 12:35:20;;;;;;;3.15;1.20;;;12.80;99.90;;;;;;5056119;28;20286;-78
2023/07/21 12:37:53;;;;;;;3.08;1.33;;;12.80;99.90;;;;;;5053600;28;20664;-80
2023/07/21 12:40:24;;;;;;;3.25;1.48;;;12.80;99.90;;;;;;5061206;28;20200;-79
2023/07/21 12:42:54;;;;;;;4.88;1.40;;;12.70;99.90;;;;;;5054555;28;20221;-79
2023/07/21 12:45:25;;;;;;;4.32;1.65;;;12.70;99.90;;;;;;5062658;28;20293;-77
2023/07/21 12:47:56;;;;;;;3.53;1.65;;;12.60;99.90;;;;;;5074336;28;20193;-79
2023/07/21 12:50:27;;;;;;;4.63;1.70;;;12.60;99.90;;;;;;5074080;28;20681;-79
2023/07/21 12:52:59;;;;;;;3.38;1.55;;;12.60;99.90;;;;;;5073387;28;20205;-79
2023/07/21 12:55:30;;;;;;;5.95;1.67;;;12.50;99.90;;;;;;5074445;28;20276;-78
2023/07/21 12:58:01;;;;;;;4.50;1.77;;;12.50;99.90;;;;;;5062993;28;20204;-79
2023/07/21 13:00:32;;;;;;;5.55;1.90;;;12.40;99.90;;;;;;5054110;28;20190;-80
2023/07/21 13:03:02;;;;;;;4.30;1.80;;;12.40;99.90;;;;;;5052694;28;20202;-80
2023/07/21 13:05:35;;;;;;;3.70;1.92;;;12.40;99.90;;;;;;5053608;28;20223;-81
2023/07/21 13:08:07;;;;;;;2.58;1.45;;;12.30;99.90;;;;;;5053041;28;20263;-79
2023/07/21 13:10:38;;;;;;;4.13;1.88;;;12.30;99.90;;;;;;5053967;28;20210;-78
2023/07/21 13:13:09;;;;;;;3.72;1.95;;;12.20;99.90;;;;;;5058855;28;20240;-80